Time;durP1;ratioP1;P1;durP2;ratioP2;P2;SDS_P1;SDS_P2;PMS_P1;PMS_P2;Temp;Humidity;BMP_temperature;BMP_pressure;BME280_temperature;BME280_humidity;BME280_pressure;Samples;Min_cycle;Max_cycle;Signal;HPM_P1;HPM_P2
2022/02/01 00:01:15;;;;;;;6.13;2.47;;;;;;;1.38;92.79;95795.84;5067595;28;20098;-75
2022/02/01 00:03:46;;;;;;;4.97;2.67;;;;;;;1.44;91.69;95799.31;5067567;28;20063;-75
2022/02/01 00:06:18;;;;;;;2.92;1.98;;;;;;;1.47;91.32;95796.91;5067275;28;20044;-74
2022/02/01 00:08:50;;;;;;;4.18;2.40;;;;;;;1.47;91.44;95796.09;5067847;28;20106;-76
2022/02/01 00:11:29;;;;;;;3.13;2.15;;;;;;;1.47;91.01;95791.53;5067384;28;20123;-75
2022/02/01 00:14:07;;;;;;;3.60;2.10;;;;;;;1.41;91.68;95794.50;5066868;28;20132;-76
2022/02/01 00:33:18;;;;;;;3.53;1.90;;;;;;;1.52;90.37;95799.56;5067849;28;20079;-75
2022/02/01 00:35:50;;;;;;;2.42;1.95;;;;;;;1.59;90.13;95799.28;5067243;28;20045;-75
2022/02/01 00:38:20;;;;;;;5.85;2.90;;;;;;;1.63;90.41;95799.53;5066723;28;20048;-76
2022/02/01 00:40:54;;;;;;;3.83;2.15;;;;;;;1.65;90.20;95808.91;5067514;28;20049;-75
2022/02/01 00:43:20;;;;;;;3.17;1.70;;;;;;;1.67;90.06;95817.50;5066184;28;20056;-75
2022/02/01 00:45:47;;;;;;;3.00;2.20;;;;;;;1.54;90.25;95828.81;5066788;28;20040;-77
2022/02/01 00:48:13;;;;;;;3.50;2.20;;;;;;;1.41;90.93;95822.16;5067024;28;20052;-74
2022/02/01 00:50:40;;;;;;;3.20;1.92;;;;;;;1.33;91.53;95821.91;5067161;28;20102;-74
2022/02/01 00:53:08;;;;;;;3.38;2.10;;;;;;;1.19;91.92;95827.81;5066946;28;20074;-75
2022/02/01 00:55:34;;;;;;;3.15;2.00;;;;;;;1.11;92.81;95828.38;5067263;28;20435;-74
2022/02/01 00:58:01;;;;;;;2.30;1.73;;;;;;;1.04;93.11;95842.06;5067235;28;20044;-75
2022/02/01 01:00:27;;;;;;;4.22;2.22;;;;;;;0.98;93.81;95842.31;5066971;28;20502;-74
2022/02/01 01:02:54;;;;;;;3.47;1.90;;;;;;;0.95;94.13;95837.50;5067372;28;20052;-74
2022/02/01 01:05:20;;;;;;;4.50;2.05;;;;;;;0.90;94.53;95845.56;5066658;28;20044;-77
2022/02/01 01:07:47;;;;;;;3.22;1.52;;;;;;;0.81;94.77;95847.16;5067104;28;20566;-75
2022/02/01 01:10:15;;;;;;;7.28;1.98;;;;;;;0.69;95.10;95842.88;5067143;28;20048;-77
2022/02/01 01:12:52;;;;;;;3.05;1.88;;;;;;;0.63;95.12;95846.63;5066465;28;20053;-74
2022/02/01 01:15:23;;;;;;;2.95;1.75;;;;;;;0.55;95.26;95852.50;5066372;28;20056;-74
2022/02/01 01:45:19;;;;;;;3.72;2.42;;;;;;;0.55;97.54;95881.97;5069491;28;20184;-74
2022/02/01 01:53:20;;;;;;;4.95;2.53;;;;;;;0.64;97.17;95883.06;5069842;28;20056;-77
2022/02/01 01:55:50;;;;;;;3.90;2.70;;;;;;;0.62;96.90;95869.13;5070091;28;20045;-75
2022/02/01 01:58:18;;;;;;;4.22;2.72;;;;;;;0.63;97.13;95876.09;5069513;28;20041;-74
2022/02/01 02:03:30;;;;;;;4.47;2.97;;;;;;;0.58;97.75;95881.47;5055697;28;20115;-75
2022/02/01 02:05:57;;;;;;;4.80;3.20;;;;;;;0.65;97.76;95871.28;5070034;28;20045;-75
2022/02/01 02:08:23;;;;;;;4.40;3.08;;;;;;;0.71;97.34;95878.25;5069488;28;20059;-75
2022/02/01 02:10:57;;;;;;;4.97;3.50;;;;;;;0.74;97.32;95888.44;5070081;28;20051;-75
2022/02/01 02:16:06;;;;;;;5.30;3.33;;;;;;;0.73;97.29;95889.50;5026223;28;20522;-75
2022/02/01 02:18:34;;;;;;;6.07;3.40;;;;;;;0.76;97.47;95902.38;5049824;28;20060;-75
2022/02/01 02:21:04;;;;;;;6.30;3.88;;;;;;;0.82;97.23;95897.81;5049830;28;20064;-75
2022/02/01 02:23:30;;;;;;;7.20;3.90;;;;;;;0.87;97.15;95899.69;5049102;28;20052;-75
2022/02/01 02:25:57;;;;;;;6.28;4.30;;;;;;;0.92;97.20;95902.38;5049503;28;20055;-75
2022/02/01 02:28:24;;;;;;;6.72;3.65;;;;;;;0.95;96.65;95907.22;5049077;28;20053;-75
2022/02/01 02:30:52;;;;;;;5.63;3.53;;;;;;;0.88;96.68;95912.03;5049578;28;20049;-75
2022/02/01 02:33:20;;;;;;;6.05;4.25;;;;;;;0.95;96.65;95923.31;5048702;28;20044;-75
2022/02/01 02:35:52;;;;;;;6.75;4.35;;;;;;;0.99;96.55;95932.41;5049295;28;20055;-75
2022/02/01 02:38:28;;;;;;;4.47;3.03;;;;;;;0.96;96.35;95951.72;5048991;28;20064;-75
2022/02/01 02:41:08;;;;;;;6.13;4.15;;;;;;;1.04;96.47;95951.16;5049479;28;20154;-75
2022/02/01 02:46:23;;;;;;;7.50;4.03;;;;;;;1.02;95.88;95969.41;5048598;28;20056;-75
2022/02/01 02:48:50;;;;;;;6.35;4.50;;;;;;;1.06;95.83;95977.75;5048946;28;20041;-75
2022/02/01 02:51:17;;;;;;;9.07;4.55;;;;;;;1.07;95.62;95990.06;5048653;28;20045;-75
2022/02/01 02:53:45;;;;;;;7.45;4.60;;;;;;;1.07;95.42;95996.22;5048856;28;20056;-75
2022/02/01 02:56:11;;;;;;;7.63;4.70;;;;;;;1.02;95.81;96004.28;5048799;28;20041;-75
2022/02/01 02:58:38;;;;;;;6.85;4.55;;;;;;;1.04;95.54;96000.25;5049155;28;20053;-75
2022/02/01 03:01:05;;;;;;;9.13;5.05;;;;;;;1.09;95.67;96010.16;5048666;28;20486;-75
2022/02/01 03:03:31;;;;;;;9.57;4.90;;;;;;;1.08;95.79;96015.81;5048673;28;20049;-75
2022/02/01 03:05:58;;;;;;;8.35;4.95;;;;;;;1.15;95.48;96025.22;5048890;28;20055;-75
2022/02/01 03:08:26;;;;;;;8.05;4.90;;;;;;;1.15;95.33;96025.22;5048079;28;20049;-76
2022/02/01 03:10:54;;;;;;;6.88;4.47;;;;;;;1.10;95.15;96027.88;5048938;28;20515;-75
2022/02/01 03:13:25;;;;;;;6.68;3.72;;;;;;;0.99;95.20;96024.38;5048159;28;20059;-74
2022/02/01 03:15:57;;;;;;;5.65;2.80;;;;;;;0.97;95.23;96017.66;5068209;28;20132;-75
2022/02/01 03:21:08;;;;;;;4.47;2.65;;;;;;;0.97;95.40;96033.75;5068069;28;20352;-74
2022/02/01 03:23:34;;;;;;;3.92;2.63;;;;;;;1.03;95.27;96032.69;5068247;28;20458;-77
2022/02/01 03:26:02;;;;;;;4.03;2.65;;;;;;;1.04;94.86;96045.00;5068379;28;20075;-75
2022/02/01 03:28:30;;;;;;;3.58;2.15;;;;;;;1.01;94.62;96050.94;5068340;28;20048;-74
2022/02/01 03:30:57;;;;;;;2.80;1.90;;;;;;;0.97;94.04;96061.34;5068266;28;20051;-77
2022/02/01 03:33:23;;;;;;;3.92;2.63;;;;;;;0.99;94.09;96074.50;5067709;28;20041;-75
2022/02/01 03:35:50;;;;;;;4.68;2.80;;;;;;;0.88;93.94;96072.84;5068147;28;20049;-75
2022/02/01 03:38:16;;;;;;;3.63;2.33;;;;;;;0.73;94.04;96077.13;5067462;28;20052;-75
2022/02/01 03:40:43;;;;;;;3.70;2.50;;;;;;;0.69;94.63;96092.09;5068329;28;20055;-75
2022/02/01 03:43:11;;;;;;;5.90;2.28;;;;;;;0.66;94.89;96097.97;5065043;28;20045;-76
2022/02/01 03:45:37;;;;;;;4.05;2.30;;;;;;;0.71;94.86;96094.50;5068000;28;20047;-75
2022/02/01 03:48:04;;;;;;;2.85;1.92;;;;;;;0.71;94.46;96110.59;5067380;28;20507;-75
2022/02/01 03:50:31;;;;;;;4.10;2.60;;;;;;;0.69;94.60;96126.94;5068101;28;20831;-75
2022/02/01 03:52:57;;;;;;;5.30;2.85;;;;;;;0.69;94.35;96124.25;5068274;28;20053;-74
2022/02/01 03:55:24;;;;;;;5.88;2.80;;;;;;;0.75;94.47;96133.13;5052001;28;20491;-76
2022/02/01 03:57:50;;;;;;;5.22;2.80;;;;;;;0.81;94.39;96144.69;5047910;28;20052;-75
2022/02/01 04:00:18;;;;;;;5.35;3.42;;;;;;;0.82;94.35;96152.44;5046994;28;20051;-76
2022/02/01 04:02:45;;;;;;;5.80;3.60;;;;;;;0.85;93.96;96167.22;5047975;28;20056;-75
2022/02/01 04:05:11;;;;;;;6.53;3.40;;;;;;;0.86;93.89;96175.00;5047351;28;20611;-75
2022/02/01 04:07:43;;;;;;;5.90;3.88;;;;;;;0.85;94.16;96181.44;5048029;28;20055;-75
2022/02/01 04:10:10;;;;;;;6.75;3.80;;;;;;;0.87;94.09;96173.13;5047044;28;20045;-74
2022/02/01 04:12:38;;;;;;;6.68;4.03;;;;;;;0.86;93.82;96171.50;5055017;28;20047;-75
2022/02/01 04:15:06;;;;;;;7.65;4.60;;;;;;;0.90;93.96;96168.03;5067169;28;20131;-75
2022/02/01 04:17:35;;;;;;;10.52;5.32;;;;;;;0.89;93.95;96154.88;5067552;28;20050;-76
2022/02/01 04:20:01;;;;;;;8.20;5.00;;;;;;;0.83;93.90;96161.28;5067455;28;20051;-75
2022/02/01 04:22:28;;;;;;;7.15;4.30;;;;;;;0.74;93.78;96159.13;5067609;28;20052;-75
2022/02/01 04:24:54;;;;;;;6.40;3.75;;;;;;;0.68;93.35;96162.84;5067425;28;20055;-75
2022/02/01 04:27:30;;;;;;;6.90;4.13;;;;;;;0.74;93.12;96179.75;5067359;28;20048;-75
2022/02/01 04:30:05;;;;;;;8.88;4.35;;;;;;;0.63;93.03;96184.25;5067676;28;20072;-75
2022/02/01 04:32:33;;;;;;;7.50;3.78;;;;;;;0.55;93.42;96182.06;5064856;28;20510;-75
2022/02/01 04:35:00;;;;;;;8.20;3.17;;;;;;;0.51;93.47;96187.09;5046993;28;20052;-75
2022/02/01 04:37:27;;;;;;;6.03;3.13;;;;;;;0.51;93.73;96186.31;5047067;28;20068;-75
2022/02/01 04:39:54;;;;;;;7.22;3.38;;;;;;;0.49;93.73;96183.88;5047401;28;20051;-75
2022/02/01 04:42:21;;;;;;;7.22;4.00;;;;;;;0.53;93.75;96194.91;5051864;28;20049;-75
2022/02/01 04:44:47;;;;;;;7.45;3.90;;;;;;;0.55;93.08;96203.47;5067592;28;20044;-75
2022/02/01 04:47:14;;;;;;;7.40;3.90;;;;;;;0.51;92.14;96205.84;5066977;28;20067;-75
2022/02/01 04:49:40;;;;;;;9.05;3.70;;;;;;;0.53;91.98;96210.97;5067354;28;20041;-76
2022/02/01 04:52:08;;;;;;;5.82;3.28;;;;;;;0.58;91.17;96213.69;5066626;28;20071;-75
2022/02/01 04:54:35;;;;;;;6.25;3.55;;;;;;;0.57;90.60;96217.41;5066966;28;20773;-75
2022/02/01 04:57:01;;;;;;;7.65;3.22;;;;;;;0.63;90.07;96226.31;5067042;28;20076;-75
2022/02/01 04:59:28;;;;;;;5.53;3.03;;;;;;;0.65;89.35;96227.66;5067449;28;20060;-75
2022/02/01 05:01:54;;;;;;;7.00;3.50;;;;;;;0.70;88.93;96238.44;5067496;28;20052;-75
2022/02/01 05:04:21;;;;;;;7.97;4.30;;;;;;;0.73;88.51;96243.28;5066363;28;20060;-76
2022/02/01 05:06:49;;;;;;;8.77;4.63;;;;;;;0.72;88.87;96257.72;5067300;28;20499;-75
2022/02/01 05:09:16;;;;;;;7.35;4.13;;;;;;;0.69;88.26;96252.91;5066773;28;20048;-76
2022/02/01 05:11:43;;;;;;;8.93;4.53;;;;;;;0.68;88.51;96255.81;5067251;28;20056;-76
2022/02/01 05:14:13;;;;;;;8.63;4.63;;;;;;;0.67;88.45;96260.38;5069543;28;20053;-75
2022/02/01 05:16:56;;;;;;;7.60;4.38;;;;;;;0.71;87.71;96272.19;5071030;28;20083;-75
2022/02/01 05:19:34;;;;;;;8.95;4.68;;;;;;;0.74;87.96;96282.41;5070291;28;20044;-76
2022/02/01 05:22:04;;;;;;;8.68;5.07;;;;;;;0.76;87.97;96269.56;5070791;28;20049;-76
2022/02/01 05:24:35;;;;;;;10.10;5.10;;;;;;;0.71;87.49;96272.19;5070158;28;20128;-76
2022/02/01 05:27:03;;;;;;;9.85;5.55;;;;;;;0.75;87.71;96284.03;5070654;28;20123;-77
2022/02/01 05:29:30;;;;;;;9.45;5.35;;;;;;;0.77;87.57;96283.75;5070807;28;20551;-75
2022/02/01 05:31:58;;;;;;;9.65;5.55;;;;;;;0.77;87.92;96292.59;5070704;28;20044;-75
2022/02/01 05:34:25;;;;;;;10.93;5.65;;;;;;;0.82;87.77;96289.16;5069676;28;20045;-75
2022/02/01 05:36:52;;;;;;;10.55;5.43;;;;;;;0.85;87.43;96298.56;5070499;28;20040;-75
2022/02/01 05:39:20;;;;;;;11.25;5.15;;;;;;;0.86;87.30;96294.81;5070347;28;20052;-75
2022/02/01 05:41:50;;;;;;;11.65;6.13;;;;;;;0.88;87.33;96303.41;5070470;28;20045;-75
2022/02/01 05:44:17;;;;;;;14.18;5.63;;;;;;;0.91;87.53;96318.97;5069027;28;20079;-75
2022/02/01 05:46:43;;;;;;;10.75;5.78;;;;;;;0.92;87.37;96309.88;5070486;28;20043;-75
2022/02/01 05:49:10;;;;;;;12.07;5.82;;;;;;;0.88;86.68;96328.34;5069707;28;20044;-76
2022/02/01 05:51:37;;;;;;;10.93;5.63;;;;;;;0.91;86.07;96327.03;5070315;28;20040;-75
2022/02/01 05:54:04;;;;;;;10.70;5.55;;;;;;;0.88;85.94;96341.72;5069631;28;20051;-75
2022/02/01 05:56:31;;;;;;;10.55;5.95;;;;;;;0.89;86.16;96347.91;5070334;28;20052;-75
2022/02/01 05:58:59;;;;;;;11.52;6.25;;;;;;;0.93;86.34;96359.75;5070094;28;20155;-75
2022/02/01 06:01:26;;;;;;;12.27;6.32;;;;;;;1.00;86.49;96365.72;5069822;28;20049;-76
2022/02/01 06:03:52;;;;;;;13.30;6.72;;;;;;;1.04;85.77;96366.78;5069657;28;20052;-76
2022/02/01 06:06:19;;;;;;;14.07;5.95;;;;;;;1.07;85.24;96377.00;5069739;28;20054;-75
2022/02/01 06:08:45;;;;;;;13.30;6.05;;;;;;;1.08;84.98;96370.59;5070045;28;20724;-75
2022/02/01 06:11:12;;;;;;;12.88;6.82;;;;;;;1.05;84.49;96371.13;5069486;28;20063;-76
2022/02/01 06:13:38;;;;;;;13.02;6.28;;;;;;;1.00;84.93;96376.44;5069247;28;20586;-77
2022/02/01 06:16:07;;;;;;;13.20;6.40;;;;;;;0.96;85.15;96375.31;5069434;28;20048;-76
2022/02/01 06:18:34;;;;;;;11.65;5.97;;;;;;;0.93;85.71;96375.81;5069515;28;20052;-77
2022/02/01 06:21:00;;;;;;;11.90;6.60;;;;;;;0.94;85.57;96377.44;5069790;28;20419;-77
2022/02/01 06:23:28;;;;;;;12.35;6.20;;;;;;;0.96;85.96;96375.31;5068855;28;20055;-76
2022/02/01 06:25:56;;;;;;;14.68;7.43;;;;;;;0.97;85.79;96372.38;5069688;28;20048;-76
2022/02/01 06:28:24;;;;;;;14.60;6.85;;;;;;;0.99;85.42;96364.06;5069383;28;20075;-76
2022/02/01 06:30:52;;;;;;;14.02;7.47;;;;;;;0.96;85.66;96360.03;5069555;28;20392;-76
2022/02/01 06:33:20;;;;;;;13.27;6.78;;;;;;;0.99;85.80;96364.06;5069230;28;20049;-76
2022/02/01 06:35:47;;;;;;;16.15;7.03;;;;;;;0.96;85.65;96357.38;5069724;28;20044;-77
2022/02/01 06:38:15;;;;;;;13.13;7.00;;;;;;;0.94;85.44;96351.47;5069064;28;20056;-77
2022/02/01 06:40:43;;;;;;;12.82;6.65;;;;;;;0.93;85.24;96354.38;5069227;28;20048;-77
2022/02/01 06:43:11;;;;;;;16.25;7.22;;;;;;;0.90;85.07;96365.63;5068254;28;20044;-78
2022/02/01 06:45:37;;;;;;;12.00;6.45;;;;;;;0.89;85.57;96374.72;5069022;28;20530;-77
2022/02/01 06:48:04;;;;;;;16.00;7.30;;;;;;;0.86;85.33;96380.59;5068470;28;20040;-78
2022/02/01 06:50:34;;;;;;;12.65;6.43;;;;;;;0.83;85.22;96391.81;5069069;28;20044;-76
2022/02/01 06:53:03;;;;;;;13.82;7.07;;;;;;;0.82;85.38;96391.03;5068951;28;20048;-77
2022/02/01 06:55:43;;;;;;;14.40;6.78;;;;;;;0.85;85.51;96381.66;5068479;28;20072;-77
2022/02/01 06:58:11;;;;;;;11.30;6.45;;;;;;;0.88;85.29;96389.19;5068355;28;20064;-77
2022/02/01 07:00:37;;;;;;;16.40;7.40;;;;;;;0.93;85.25;96405.31;5068700;28;20049;-77
2022/02/01 07:03:04;;;;;;;13.80;6.40;;;;;;;0.96;85.01;96399.47;5068286;28;20044;-78
2022/02/01 07:05:32;;;;;;;14.98;7.50;;;;;;;0.97;84.35;96395.69;5068421;28;20049;-76
2022/02/01 07:07:58;;;;;;;12.93;6.57;;;;;;;0.97;84.54;96403.75;5068637;28;20051;-76
2022/02/01 07:10:25;;;;;;;16.50;6.63;;;;;;;0.98;84.51;96394.63;5068285;28;20693;-77
2022/02/01 07:12:51;;;;;;;16.30;7.00;;;;;;;0.90;85.61;96397.81;5068169;28;20056;-76
2022/02/01 07:15:18;;;;;;;18.05;7.85;;;;;;;0.74;87.17;96399.53;5067998;28;20064;-76
2022/02/01 07:17:46;;;;;;;18.20;8.23;;;;;;;0.70;87.96;96404.59;5068737;28;20048;-76
2022/02/01 07:20:12;;;;;;;17.73;8.35;;;;;;;0.63;88.86;96404.00;5067671;28;20044;-77
2022/02/01 07:22:42;;;;;;;17.48;9.38;;;;;;;0.61;89.61;96403.41;5068575;28;20044;-76
2022/02/01 07:25:14;;;;;;;18.83;8.68;;;;;;;0.58;90.29;96406.63;5067556;28;20514;-77
2022/02/01 07:27:42;;;;;;;16.02;8.77;;;;;;;0.56;91.24;96418.66;5068036;28;20056;-76
2022/02/01 07:30:12;;;;;;;18.63;9.27;;;;;;;0.53;91.83;96428.00;5067701;28;20045;-76
2022/02/01 07:32:39;;;;;;;21.00;10.20;;;;;;;0.52;92.50;96426.38;5068077;28;20084;-76
2022/02/01 07:35:07;;;;;;;19.23;9.63;;;;;;;0.51;93.12;96430.13;5066862;28;20045;-78
2022/02/01 07:37:34;;;;;;;20.75;9.27;;;;;;;0.55;93.47;96444.63;5068024;28;20507;-76
2022/02/01 07:40:02;;;;;;;17.30;8.88;;;;;;;0.59;93.27;96451.13;5067972;28;20135;-76
2022/02/01 07:42:29;;;;;;;17.35;9.05;;;;;;;0.59;93.55;96451.13;5067927;28;20065;-75
2022/02/01 07:44:58;;;;;;;16.75;8.45;;;;;;;0.61;93.89;96451.66;5067727;28;20037;-76
2022/02/01 07:47:25;;;;;;;15.98;8.77;;;;;;;0.63;94.06;96456.78;5067661;28;20044;-76
2022/02/01 07:49:52;;;;;;;17.70;8.63;;;;;;;0.62;93.94;96452.47;5067952;28;20051;-76
2022/02/01 07:52:19;;;;;;;14.52;8.00;;;;;;;0.66;93.66;96449.03;5067457;28;20056;-75
2022/02/01 07:54:46;;;;;;;15.63;7.95;;;;;;;0.75;93.33;96449.41;5058221;28;20048;-77
2022/02/01 07:57:15;;;;;;;13.98;7.55;;;;;;;0.77;92.98;96437.34;5047396;28;20045;-76
2022/02/01 07:59:41;;;;;;;16.75;7.25;;;;;;;0.79;92.44;96442.47;5052634;22;20644;-78
2022/02/01 08:02:19;;;;;;;17.48;6.75;;;;;;;0.83;92.19;96453.47;5054177;28;20041;-79
2022/02/01 08:04:46;;;;;;;18.23;6.30;;;;;;;0.83;92.15;96464.19;5048157;28;20132;-79
2022/02/01 08:07:12;;;;;;;13.40;6.40;;;;;;;0.83;91.83;96472.25;5049303;28;20049;-78
2022/02/01 08:09:43;;;;;;;13.25;6.00;;;;;;;0.83;91.77;96473.06;5047684;28;20514;-79
2022/02/01 08:12:14;;;;;;;11.27;5.72;;;;;;;0.75;92.36;96477.00;5047992;28;20049;-79
2022/02/01 08:17:32;;;;;;;10.98;5.53;;;;;;;0.70;92.44;96463.56;5070966;28;20127;-78
2022/02/01 08:20:02;;;;;;;11.43;5.95;;;;;;;0.68;93.08;96470.22;5087750;28;20055;-77
2022/02/01 08:22:37;;;;;;;15.20;7.15;;;;;;;0.65;93.37;96460.81;5088254;28;20833;-79
2022/02/01 08:25:04;;;;;;;13.23;6.50;;;;;;;0.61;93.54;96456.22;5087400;28;20515;-77
2022/02/01 08:27:31;;;;;;;14.57;5.70;;;;;;;0.58;93.42;96460.22;5087326;28;20617;-80
2022/02/01 08:30:09;;;;;;;20.85;6.13;;;;;;;0.56;92.85;96472.22;5089454;28;20418;-82
2022/02/01 08:32:36;;;;;;;18.85;5.25;;;;;;;0.55;91.17;96471.44;5086724;28;20036;-73
2022/02/01 08:35:04;;;;;;;20.70;5.10;;;;;;;0.51;90.23;96486.38;5086541;28;20052;-74
2022/02/01 08:37:31;;;;;;;22.83;5.03;;;;;;;0.48;90.27;96482.34;5087736;28;20043;-75
2022/02/01 08:39:58;;;;;;;18.92;5.05;;;;;;;0.52;90.42;96493.34;5077468;28;20041;-79
2022/02/01 08:42:24;;;;;;;20.75;5.22;;;;;;;0.55;90.31;96498.22;5071116;28;20044;-76
2022/02/01 08:44:52;;;;;;;24.42;4.68;;;;;;;0.56;90.15;96499.84;5087044;28;20052;-75
2022/02/01 08:47:20;;;;;;;19.13;4.60;;;;;;;0.61;88.96;96497.22;5089008;28;20056;-75
2022/02/01 08:49:47;;;;;;;14.90;4.43;;;;;;;0.66;88.92;96504.50;5091550;28;20055;-77
2022/02/01 08:52:22;;;;;;;23.67;5.15;;;;;;;0.68;88.28;96500.53;5091148;28;20704;-75
2022/02/01 08:54:51;;;;;;;21.95;3.95;;;;;;;0.64;87.19;96512.00;5091031;28;20795;-78
2022/02/01 08:57:21;;;;;;;28.58;5.35;;;;;;;0.57;85.76;96517.53;5091170;28;20052;-76
2022/02/01 08:59:49;;;;;;;24.88;4.68;;;;;;;0.52;86.69;96520.16;5098448;28;20057;-83
2022/02/01 09:02:17;;;;;;;13.00;3.90;;;;;;;0.55;85.37;96533.06;5093895;28;20101;-79
2022/02/01 09:04:45;;;;;;;14.40;3.50;;;;;;;0.54;83.14;96536.81;5091984;28;20048;-86
2022/02/01 09:07:12;;;;;;;20.27;3.88;;;;;;;0.49;84.39;96526.81;5105169;28;20044;-82
2022/02/01 09:09:39;;;;;;;16.17;3.58;;;;;;;0.56;83.95;96531.19;5081044;28;20418;-76
2022/02/01 09:12:07;;;;;;;17.08;3.22;;;;;;;0.64;83.48;96518.16;5093810;28;20051;-76
2022/02/01 09:14:34;;;;;;;19.67;3.67;;;;;;;0.64;84.09;96522.72;5091888;28;20048;-79
2022/02/01 09:17:01;;;;;;;15.55;3.95;;;;;;;0.68;83.08;96532.69;5097669;28;20046;-78
2022/02/01 09:19:28;;;;;;;14.75;3.70;;;;;;;0.76;83.28;96528.75;5098738;28;20052;-82
2022/02/01 09:21:56;;;;;;;16.10;3.63;;;;;;;0.74;82.38;96529.00;5097096;28;20048;-80
2022/02/01 09:24:23;;;;;;;12.55;4.10;;;;;;;0.77;81.72;96533.03;5095328;28;20051;-80
2022/02/01 09:26:50;;;;;;;16.20;3.67;;;;;;;0.77;81.35;96533.84;5095060;28;20048;-82
2022/02/01 09:29:17;;;;;;;20.88;3.28;;;;;;;0.76;81.56;96542.94;5096455;28;20040;-79
2022/02/01 09:31:45;;;;;;;15.13;3.80;;;;;;;0.79;81.15;96544.34;5092116;28;20079;-77
2022/02/01 09:34:11;;;;;;;20.23;3.70;;;;;;;0.73;81.70;96543.47;5089938;28;20392;-78
2022/02/01 09:36:38;;;;;;;20.92;3.72;;;;;;;0.78;81.28;96543.53;5090120;28;20051;-77
2022/02/01 09:39:08;;;;;;;13.75;3.13;;;;;;;0.87;81.38;96548.44;5090270;28;20426;-74
2022/02/01 09:41:38;;;;;;;10.80;3.33;;;;;;;0.93;80.21;96548.22;5090095;28;20052;-74
2022/02/01 09:44:05;;;;;;;19.90;3.42;;;;;;;0.93;79.72;96555.47;5089570;28;20040;-73
2022/02/01 09:46:34;;;;;;;16.38;3.22;;;;;;;0.93;79.82;96553.59;5090179;28;20579;-79
2022/02/01 09:49:01;;;;;;;16.50;3.13;;;;;;;0.95;80.19;96561.41;5090986;28;20056;-78
2022/02/01 09:51:29;;;;;;;15.10;3.22;;;;;;;0.96;80.27;96546.94;5092241;28;20521;-79
2022/02/01 09:53:55;;;;;;;13.82;3.80;;;;;;;0.91;80.63;96544.19;5103178;28;20060;-85
2022/02/01 09:56:23;;;;;;;16.30;3.92;;;;;;;1.01;80.99;96560.38;5087807;28;20067;-77
2022/02/01 09:58:54;;;;;;;15.57;3.60;;;;;;;0.96;79.41;96566.50;5089338;28;20166;-76
2022/02/01 10:01:25;;;;;;;14.77;3.95;;;;;;;0.93;80.34;96563.50;5089428;28;20191;-80
2022/02/01 10:04:01;;;;;;;9.30;3.22;;;;;;;0.92;80.06;96567.25;5090000;28;20579;-76
2022/02/01 10:06:30;;;;;;;23.50;3.53;;;;;;;0.89;80.47;96567.75;5089411;28;20052;-82
2022/02/01 10:09:04;;;;;;;16.73;3.03;;;;;;;0.91;81.27;96568.31;5091302;28;20411;-81
2022/02/01 10:11:37;;;;;;;16.25;3.42;;;;;;;0.93;81.07;96566.19;5089815;28;20051;-80
2022/02/01 10:14:05;;;;;;;11.82;3.22;;;;;;;0.99;81.32;96557.97;5088402;28;20060;-81
2022/02/01 10:16:34;;;;;;;16.67;3.65;;;;;;;1.04;80.67;96554.50;5090109;28;20055;-79
2022/02/01 10:19:08;;;;;;;20.90;3.33;;;;;;;1.09;80.96;96554.56;5089548;28;20055;-81
2022/02/01 10:21:34;;;;;;;17.50;3.67;;;;;;;1.01;80.59;96555.03;5090075;28;20113;-79
2022/02/01 10:24:05;;;;;;;13.57;2.75;;;;;;;1.02;80.50;96553.97;5093262;28;20399;-80
2022/02/01 10:26:34;;;;;;;12.30;2.83;;;;;;;1.02;81.02;96560.13;5091787;28;20105;-75
2022/02/01 10:29:05;;;;;;;16.80;3.30;;;;;;;1.01;81.16;96557.72;5089481;28;20040;-76
2022/02/01 10:31:39;;;;;;;11.98;3.25;;;;;;;0.95;80.68;96556.03;5089462;28;20050;-75
2022/02/01 10:34:39;;;;;;;18.42;2.63;;;;;;;0.91;80.60;96560.28;5088635;28;20039;-75
2022/02/01 10:37:16;;;;;;;12.60;2.90;;;;;;;0.90;80.81;96564.03;5089203;28;20047;-78
2022/02/01 10:39:43;;;;;;;8.13;2.22;;;;;;;0.90;80.20;96547.94;5090333;28;20438;-79
2022/02/01 10:42:13;;;;;;;11.70;2.42;;;;;;;0.92;80.42;96556.53;5091160;28;20132;-79
2022/02/01 10:44:43;;;;;;;14.40;3.53;;;;;;;0.99;80.81;96541.88;5088851;28;20047;-77
2022/02/01 10:47:12;;;;;;;11.30;2.20;;;;;;;1.05;80.72;96548.09;5088914;28;20044;-78
2022/02/01 10:49:39;;;;;;;14.18;2.72;;;;;;;1.06;79.91;96541.66;5089061;28;20051;-77
2022/02/01 10:52:08;;;;;;;11.68;2.35;;;;;;;1.06;79.40;96541.66;5089026;28;20044;-77
2022/02/01 10:54:36;;;;;;;12.95;2.15;;;;;;;1.12;79.37;96543.34;5087724;28;20135;-77
2022/02/01 10:57:05;;;;;;;12.45;2.10;;;;;;;1.12;77.93;96535.28;5087988;28;20048;-77
2022/02/01 10:59:32;;;;;;;10.00;1.95;;;;;;;1.11;78.32;96533.69;5088243;28;20753;-78
2022/02/01 11:02:03;;;;;;;8.45;1.75;;;;;;;1.14;78.03;96537.72;5088601;28;20048;-77
2022/02/01 11:04:31;;;;;;;11.57;2.20;;;;;;;1.14;78.45;96543.88;5088425;28;20074;-77
2022/02/01 11:06:57;;;;;;;14.85;1.85;;;;;;;1.18;78.64;96534.28;5088842;28;20044;-77
2022/02/01 11:09:28;;;;;;;10.10;1.83;;;;;;;1.19;78.40;96533.19;5088333;28;20502;-78
2022/02/01 11:11:57;;;;;;;10.93;2.38;;;;;;;1.27;78.18;96530.06;5088252;28;20062;-77
2022/02/01 11:14:25;;;;;;;12.20;2.40;;;;;;;1.38;78.41;96524.81;5066845;28;20044;-77
2022/02/01 11:17:04;;;;;;;9.07;1.83;;;;;;;1.39;76.77;96537.94;5067459;28;20077;-78
2022/02/01 11:19:32;;;;;;;11.52;1.63;;;;;;;1.37;76.56;96520.50;5067455;28;20407;-77
2022/02/01 11:22:01;;;;;;;13.30;1.95;;;;;;;1.37;77.63;96525.88;5067185;28;20543;-77
2022/02/01 11:24:34;;;;;;;13.55;1.85;;;;;;;1.35;77.51;96518.06;5067114;28;20153;-77
2022/02/01 11:27:04;;;;;;;9.02;2.15;;;;;;;1.37;77.15;96520.50;5067221;28;20127;-77
2022/02/01 11:29:39;;;;;;;10.43;1.88;;;;;;;1.44;77.29;96505.78;5067298;28;20098;-77
2022/02/01 11:32:18;;;;;;;8.48;1.80;;;;;;;1.46;76.10;96492.94;5085028;28;20044;-77
2022/02/01 11:34:45;;;;;;;2.83;1.20;;;;;;;1.45;75.91;96487.81;5087406;28;20101;-77
2022/02/01 11:37:15;;;;;;;10.15;2.08;;;;;;;1.44;75.49;96495.06;5087159;28;20564;-77
2022/02/01 11:39:49;;;;;;;8.10;1.55;;;;;;;1.47;75.20;96483.03;5087395;28;20456;-78
2022/02/01 11:42:17;;;;;;;9.20;1.95;;;;;;;1.56;75.68;96476.91;5085854;28;20059;-77
2022/02/01 11:44:44;;;;;;;12.25;1.85;;;;;;;1.52;73.58;96466.97;5086910;28;20051;-79
2022/02/01 11:47:13;;;;;;;11.45;2.42;;;;;;;1.53;73.46;96466.69;5085992;28;20051;-77
2022/02/01 11:49:51;;;;;;;7.90;1.95;;;;;;;1.51;73.81;96468.00;5087370;28;20414;-78
2022/02/01 11:52:18;;;;;;;12.73;1.80;;;;;;;1.55;74.17;96471.78;5086473;28;20044;-78
2022/02/01 11:54:47;;;;;;;10.95;1.50;;;;;;;1.53;74.45;96449.78;5086744;28;20273;-77
2022/02/01 11:57:17;;;;;;;9.68;2.08;;;;;;;1.48;73.77;96457.81;5085966;28;20079;-77
2022/02/01 11:59:55;;;;;;;7.38;1.55;;;;;;;1.48;73.92;96457.81;5087171;28;20498;-77
2022/02/01 12:02:28;;;;;;;6.93;2.13;;;;;;;1.51;74.85;96441.16;5086196;28;20498;-77
2022/02/01 12:05:06;;;;;;;8.75;1.92;;;;;;;1.53;75.29;96433.69;5086453;28;20094;-78
2022/02/01 12:07:42;;;;;;;6.70;1.90;;;;;;;1.54;74.63;96429.94;5086428;28;20040;-77
2022/02/01 12:10:13;;;;;;;7.18;1.67;;;;;;;1.53;75.25;96417.59;5086276;28;20035;-77
2022/02/01 12:12:39;;;;;;;11.75;1.95;;;;;;;1.58;75.52;96412.25;5086446;28;20071;-77
2022/02/01 12:15:06;;;;;;;8.80;1.90;;;;;;;1.54;75.34;96403.09;5085234;28;20783;-77
2022/02/01 12:17:38;;;;;;;8.50;1.63;;;;;;;1.59;75.92;96397.75;5086957;28;20055;-77
2022/02/01 12:20:05;;;;;;;6.65;1.98;;;;;;;1.59;75.38;96389.69;5086027;28;20047;-78
2022/02/01 12:22:38;;;;;;;5.40;2.13;;;;;;;1.61;76.20;96395.59;5086172;28;20054;-77
2022/02/01 12:25:05;;;;;;;9.38;2.38;;;;;;;1.66;76.02;96384.09;5085849;28;20090;-78
2022/02/01 12:27:36;;;;;;;5.68;1.63;;;;;;;1.69;74.92;96365.59;5086222;28;20052;-77
2022/02/01 12:30:04;;;;;;;8.23;2.22;;;;;;;1.74;75.65;96370.19;5085958;28;20055;-77
2022/02/01 12:32:31;;;;;;;8.68;1.88;;;;;;;1.74;75.45;96364.81;5086103;28;20094;-79
2022/02/01 12:34:59;;;;;;;9.10;2.17;;;;;;;1.69;75.41;96365.59;5086527;28;20044;-77
2022/02/01 12:37:27;;;;;;;5.85;2.00;;;;;;;1.69;76.62;96368.28;5085646;28;20043;-78
2022/02/01 12:40:04;;;;;;;7.07;1.75;;;;;;;1.61;76.92;96366.09;5086186;28;20664;-79
2022/02/01 12:42:38;;;;;;;7.72;1.67;;;;;;;1.47;77.76;96371.13;5085905;28;20067;-77
2022/02/01 12:47:58;;;;;;;3.88;1.52;;;;;;;1.43;80.10;96379.94;5086658;28;20764;-76
2022/02/01 12:50:26;;;;;;;8.90;2.22;;;;;;;1.41;80.21;96371.31;5088599;28;20048;-79